createdAt,value
2023-03-23T15:58:53.778Z,20.70
2023-03-23T16:01:23.653Z,21.70
2023-03-23T16:04:03.264Z,24.10
2023-03-23T16:06:33.823Z,24.20
2023-03-23T16:09:03.045Z,25.10
2023-03-23T16:11:33.496Z,24.00
2023-03-23T16:14:02.325Z,26.30
2023-03-23T16:16:50.451Z,28.00
2023-03-23T16:19:25.055Z,27.20
2023-03-23T16:21:56.290Z,29.60
2023-03-23T16:24:27.145Z,31.40
2023-03-23T16:27:01.348Z,30.40
2023-03-23T16:32:01.346Z,35.30
2023-03-23T16:34:35.325Z,36.70
2023-03-23T16:37:07.160Z,33.10
2023-03-23T16:39:37.105Z,31.80
2023-03-23T16:42:09.097Z,33.50
2023-03-23T16:44:44.394Z,33.70
2023-03-23T16:47:13.160Z,38.50
2023-03-23T16:49:42.396Z,35.60
2023-03-23T16:52:10.528Z,32.40
2023-03-23T16:54:38.742Z,33.50
2023-03-23T16:57:09.363Z,31.50
2023-03-23T16:59:42.577Z,30.20
2023-03-23T17:02:11.810Z,29.20
2023-03-23T17:04:44.910Z,31.60
2023-03-23T17:07:15.048Z,33.60
2023-03-23T17:09:43.199Z,32.90
2023-03-23T17:12:13.513Z,31.80
2023-03-23T17:14:45.409Z,29.90
2023-03-23T17:17:18.513Z,28.10
2023-03-23T17:19:53.203Z,21.50
2023-03-23T17:22:20.898Z,20.80
2023-03-23T17:24:54.503Z,18.50
2023-03-23T17:27:25.762Z,17.20
2023-03-23T17:29:58.512Z,15.80
2023-03-23T17:32:27.537Z,15.70
2023-03-23T17:35:02.383Z,15.10
2023-03-23T17:37:32.779Z,15.10
2023-03-23T17:40:01.515Z,15.30
2023-03-23T17:42:34.499Z,15.60
2023-03-23T17:45:07.486Z,18.40
2023-03-23T17:47:39.108Z,19.80
2023-03-23T17:50:13.566Z,20.10
2023-03-23T17:52:49.381Z,18.90
2023-03-23T17:55:19.867Z,19.50
2023-03-23T17:57:53.560Z,17.20
2023-03-23T18:00:25.927Z,17.60
2023-03-23T18:02:56.096Z,16.90
2023-03-23T18:05:28.221Z,15.80
2023-03-23T18:07:56.474Z,14.40
2023-03-23T18:10:25.412Z,14.50
2023-03-23T18:12:54.194Z,14.70
2023-03-23T18:15:28.343Z,13.80
2023-03-23T18:18:03.223Z,15.70
2023-03-23T18:20:33.230Z,13.70
2023-03-23T18:23:04.385Z,13.10
2023-03-23T18:25:33.218Z,14.90
2023-03-23T18:28:05.726Z,13.00
2023-03-23T18:30:37.613Z,14.80
2023-03-23T18:33:10.608Z,14.20
2023-03-23T18:35:45.187Z,13.80
2023-03-23T18:38:25.073Z,14.80
2023-03-23T18:40:59.716Z,15.50
2023-03-23T18:43:27.764Z,15.40
2023-03-23T18:45:59.521Z,16.70
2023-03-23T18:48:33.750Z,16.10
2023-03-23T18:51:03.731Z,17.40
2023-03-23T18:53:37.162Z,16.60
2023-03-23T18:56:39.816Z,18.70
2023-03-23T18:59:12.702Z,18.30
2023-03-23T19:02:05.360Z,19.80
2023-03-23T19:04:41.163Z,16.50
2023-03-23T19:07:15.917Z,17.30
2023-03-23T19:09:48.251Z,17.50
2023-03-23T19:12:23.369Z,17.10
2023-03-23T19:14:57.581Z,17.90
2023-03-23T19:17:25.739Z,17.40
2023-03-23T19:20:45.394Z,20.50
2023-03-23T19:23:17.973Z,16.50
2023-03-23T19:25:48.310Z,16.80
2023-03-23T19:29:23.102Z,15.70
2023-03-23T19:31:34.055Z,15.60
2023-03-23T19:34:08.275Z,15.60
2023-03-23T19:36:39.918Z,14.80
2023-03-23T19:39:13.810Z,16.40
2023-03-23T19:41:46.968Z,16.80
2023-03-23T19:44:19.895Z,16.00
2023-03-23T19:46:49.524Z,17.60
2023-03-23T19:49:20.870Z,16.50
2023-03-23T19:51:49.997Z,16.10
2023-03-23T19:54:19.323Z,15.00
2023-03-23T19:56:48.813Z,14.90
2023-03-23T19:59:19.375Z,14.20
2023-03-23T20:01:48.745Z,15.30
2023-03-23T20:04:18.220Z,13.20
2023-03-23T20:06:47.638Z,12.40
2023-03-23T20:09:19.014Z,13.70
2023-03-23T20:11:50.429Z,14.60
2023-03-23T20:14:25.868Z,15.00
2023-03-23T20:17:00.410Z,15.10
2023-03-23T20:19:29.431Z,14.10
2023-03-23T20:22:00.126Z,13.00
2023-03-23T20:24:31.785Z,13.10
2023-03-23T20:27:05.313Z,13.00
2023-03-23T20:29:35.063Z,13.00
2023-03-23T20:32:02.568Z,13.70
2023-03-23T20:34:30.748Z,13.00
2023-03-23T20:37:02.258Z,12.90
2023-03-23T20:39:37.259Z,12.90
2023-03-23T20:42:07.384Z,13.00
2023-03-23T20:44:39.184Z,13.20
2023-03-23T20:47:09.154Z,13.30
2023-03-23T20:49:38.712Z,14.20
2023-03-23T20:52:19.086Z,14.40
2023-03-23T20:54:50.172Z,12.80
2023-03-23T20:57:20.221Z,13.80
2023-03-23T20:59:55.238Z,13.00
2023-03-23T21:02:25.157Z,13.30
2023-03-23T21:05:03.630Z,12.50
2023-03-23T21:07:33.137Z,12.60
2023-03-23T21:10:03.222Z,11.20
2023-03-23T21:12:35.489Z,12.10
2023-03-23T21:15:04.428Z,12.00
2023-03-23T21:17:32.963Z,11.60
2023-03-23T21:20:10.879Z,12.70
2023-03-23T21:22:42.101Z,12.10
2023-03-23T21:25:09.669Z,12.50
2023-03-23T21:27:41.310Z,12.50
2023-03-23T21:30:10.565Z,11.00
2023-03-23T21:32:37.954Z,11.20
2023-03-23T21:35:08.426Z,11.40
2023-03-23T21:37:36.746Z,11.70
2023-03-23T21:40:13.710Z,12.20
2023-03-23T21:42:45.417Z,12.10
2023-03-23T21:45:18.029Z,12.50
2023-03-23T21:47:48.860Z,12.40
2023-03-23T21:50:21.578Z,12.10
2023-03-23T21:52:51.241Z,11.10
2023-03-23T21:55:29.142Z,12.40
2023-03-23T21:57:59.256Z,12.30
2023-03-23T22:03:03.698Z,11.60
2023-03-23T22:05:31.598Z,11.00
2023-03-23T22:08:06.443Z,12.00
2023-03-23T22:10:33.980Z,11.20
2023-03-23T22:13:01.945Z,11.30
2023-03-23T22:15:30.640Z,11.90
2023-03-23T22:18:00.286Z,11.20
2023-03-23T22:20:30.272Z,11.10
2023-03-23T22:22:59.908Z,11.60
2023-03-23T22:25:28.265Z,12.10
2023-03-23T22:27:59.088Z,10.80
2023-03-23T22:30:29.237Z,10.60
2023-03-23T22:32:59.288Z,11.30
2023-03-23T22:35:27.871Z,11.90
2023-03-23T22:37:55.673Z,12.10
2023-03-23T22:40:25.772Z,12.90
2023-03-23T22:42:56.355Z,11.10
2023-03-23T22:45:26.018Z,10.60
2023-03-23T22:47:53.711Z,11.70
2023-03-23T22:50:25.577Z,11.40
2023-03-23T22:52:53.855Z,11.10
2023-03-23T22:55:27.713Z,11.00
2023-03-23T22:57:57.151Z,11.70
2023-03-23T23:00:25.766Z,10.90
2023-03-23T23:02:53.379Z,10.00
2023-03-23T23:05:20.729Z,11.70
2023-03-23T23:07:51.784Z,10.90
2023-03-23T23:10:21.532Z,10.30
2023-03-23T23:12:49.114Z,10.10
2023-03-23T23:15:23.837Z,11.10
2023-03-23T23:17:56.120Z,9.90
2023-03-23T23:20:24.056Z,10.50
2023-03-23T23:26:34.576Z,10.10
2023-03-23T23:29:03.551Z,9.90
2023-03-23T23:31:36.093Z,10.20
2023-03-23T23:34:06.564Z,8.80
2023-03-23T23:36:37.907Z,9.80
2023-03-23T23:39:06.144Z,9.80
2023-03-23T23:41:39.066Z,10.10
2023-03-23T23:44:07.011Z,10.70
2023-03-23T23:46:37.408Z,10.60
2023-03-23T23:49:06.566Z,9.60
2023-03-23T23:51:38.276Z,9.60
2023-03-23T23:54:22.145Z,10.30
2023-03-23T23:57:01.547Z,9.20
2023-03-23T23:59:38.909Z,9.30
